Little Canada, Minnesota
Current Conditions -  °F | °C
As of 9:53 PM on Saturday 25 Oct 2014 (Local Time) from KSTP Reporting Station
Clear Clear  
Wind Chill: 44°   Ceiling: Unl
Heat Index: 48°   Visibility: 10mi
Dew Point: 27°   Wind: 9mph
Humidity: 44%   Direction: 330°NNW
Pressure: 30.05"   Gusts: NA
Location:  44.9981°N, 93.0983°W
Report Text: KSTP 260253Z AUTO 33008KT 10SM CLR 09/M03 A3005 RMK AO2 SLP178 T00891028 51005
Loading
Personal Weather Stations






























Interactive Weather Map
Tropical Storm Tracking
New forecast layout! Learn more

10-Day Weather Forecast

Advertisements
Track Severe Weather on mobile